Member area
Imprimable
Challenges > Delhalle - Erpent, 17/02/2007, BEL - La Printanière
List of reports > Delhalle - 15.4km - Classement Scratch
Search: Page: [1] 2
845 Entries
 
Complains are not accepted anymore. Results are final.
Category
PosNrNameAgeNATLeagueTeamRealTimeTkmMoy.PlaceNamePtsCity
1.2344VANDEPUTTE Eddy36BELCSL54:3854:393:33 16.911SEN1126
2.535THERASSE Gwennael26BELSMACVO2 NAM54:4954:503:34 16.852SEN1122NAMUR
3.2348PAUQUET Damien28BELJOGGPLUS54:5754:593:35 16.813SEN1119
4.1190ALSTEENS Luc33BELAXA TEAM55:5255:543:38 16.534SEN1100BEERSEL
5.2053LOQUET Thomas24BELACLEETCHIEVRE56:1056:113:39 16.455SEN1094CHIÈVRES
6.2506DEKEYSER Jonathan26BELBBS56:2756:283:40 16.366SEN1089
7.9DEVEIRMAN Didier27BELCSFTRAINING 756:4356:443:42 16.297SEN1083BEERSEL
8.1134VANDERBECK Yves39BELRIWARONVAU56:5256:533:42 16.248SEN1080MALONNE
9.2444HARDY Eric45BELACLO57:2857:283:44 16.081VE11067BOURLERS
10.388HERBET Henri45BELSPA58:1158:143:47 15.872VE11054SART LEZ SPA
11.2092COOPMANS Benny39BELAADRINKTEAM58:3458:343:49 15.789SEN1046RAMSEL
12.202GALLEZ Gregory33BELONHOXY200058:3858:403:49 15.7510SEN1044COLFONTAINE
13.1529LOMBART Frederic40BELOCAN58:5558:563:50 15.683VE11039GEMBLOUX
14.523GORNIAK Thaddee31BELOXY200059:3659:383:53 15.4911SEN1026HYON
15.238VAN DEN ABEELE Sébastian37BELACLO59:5659:573:54 15.4112SEN1019CARNNIÈRES
16.529HANSEN Gerald31BELDACMSIPPELB1:00:121:00:133:55 15.3413SEN1014BRUXELLES
17.518PAUL Thierry39BELARCH1:00:111:00:133:55 15.3414SEN1014MARCHE-EN-FAMENNE
18.922GRODRIAN Renaud34BELVO2 NAM1:00:151:00:163:55 15.3315SEN1012JAMBES
19.163NUTELET Carlos53BELCABWNAC1:00:161:00:183:55 15.321VE21012ECAUSSINES
20.2449DAUTREPPE Benoit33BELOCANVO2 NAM1:00:591:00:593:58 15.1516SEN998
21.11DUBOIS Michel50BELHERV1:01:031:01:043:58 15.132VE2997WELKENRAEDT
22.1448HANOT Serge44BEL1:01:081:01:093:59 15.114VE1995LATHUY
23.1083LEONI Franco41BEL1:01:141:01:173:59 15.085VE1992VOTTEM
24.2414URBAIN Pascal31BEL1:01:511:01:544:02 14.9317SEN981
25.180GILBERT Michel40BELUACBOUFFIOL1:02:001:02:034:02 14.896VE1978MARCINELLE
26.2041HILDEBRAND Marc36BELRCB1:02:181:02:194:03 14.8318SEN973SAINT-GILLES
26.1150MOENS Alain53BELKURISTO1:02:191:02:194:03 14.833VE2972KRAAINEM
28.2420MANIRAFASHA Patrick31BEL1:02:201:02:234:04 14.8119SEN971
29.2065ROSSI Claude49BELJOGGPLUS1:02:391:02:414:05 14.747VE1965YVOIR
30.1185DARTE Eric43BEL1:02:551:02:574:06 14.688VE1960LEUZE
31.2313RAMELOT Régis26BELSERSERUNNER1:03:041:03:084:06 14.6420SEN957FLÉMALLE
32.1398GILLET J.Paul61BELISV1:03:131:03:164:07 14.601VE3954VIRTON
33.131LEMAIRE Philippe41BELRONVAU1:03:171:03:194:07 14.599VE1952LASNE
34.1484ORVAL Alain38BEL1:03:241:03:254:08 14.5721SEN950SPA
35.2089NEYNS Bart40BELJC MOLLEM1:03:351:03:364:08 14.5310VE1946MOLLEM
36.1825MORDUE Simon36BELRCBRCB1:03:561:03:574:10 14.4522SEN940BRUXELLES
37.2329CUSCHERA Pino37BELACLO1:03:541:04:054:10 14.4223SEN941BINCHE
38.448PASQUE Cedric28BELRRTC1:04:051:04:164:11 14.3824SEN937BOUFFIOULX
39.1175FELIERS Eddy39BELKAPUCIJN1:04:201:04:234:11 14.3525SEN932TERVUREN
40.2300MINELLI Rocco40BEL1:04:261:04:274:12 14.3411VE1930BOIS-DE-VILLERS
41.1033DUCAMP Jacques38BELANTILOB1:04:241:04:284:12 14.3326SEN930WATERMAEL-BOITSFORT
42.2037FAYMONVILLE Jean-Marc47BELRCAS1:04:271:04:344:12 14.3112VE1929WAIMES
43.590VAN HEES Bruno40BEL1:04:151:04:414:13 14.2813VE1932ARLON
44.2478CULOT Dominique47BELNAC1:04:441:04:474:13 14.2614VE1923
45.1530DEGEIMBRE Michel45BELARCH1:04:551:04:574:14 14.2315VE1920AWAGNE
46.2013FFROMENT Sabine32BELACCORCNAMUR1:05:041:05:074:14 14.191DAM917BOUGE
47.2220DELHOUGNE Romain32BEL1:05:071:05:104:14 14.1827SEN916MUIZEN
48.1325MATHOREL Jean-Michel44BELDSDS RUNNING1:05:141:05:154:15 14.1616VE1914BAUDOUR
49.2455BOUDRON Jean-Baptiste34BEL1:05:171:05:334:16 14.1028SEN912
50.1204BLACHERE Eric42BELAMAY1:05:281:05:374:16 14.0817VE1909HUY
51.141SPARACIO Bruno34BELPOUR ANTONI1:05:391:05:414:16 14.0729SEN905SAMBREVILLE
52.566WAERTS Alain54BELSERSERUNNER1:05:401:05:444:17 14.064VE2904BARVAUX S/O
53.507CRESPINET Alain44BELRCBRCB1:05:441:05:484:17 14.0418VE1903ROSIERES
54.2296LUCAS Michaël40BELRCB1:05:461:05:554:17 14.0219VE1902BRUXELLES
55.1735UITDEBROEKS Romain57BELACA1:06:021:06:064:18 13.985VE2897ALKEN
56.2002AUQUIER Géry52BELSMAC1:06:071:06:104:18 13.966VE2895NAMUR
57.2307DEVOS David26BEL1:06:121:06:134:18 13.9530SEN894THON SAMSON
58.2431MAHIA Sebastien21BEL1:06:211:06:234:19 13.9231SEN891
59.583LENGLAIS Franck40BELACLO1:06:141:06:234:19 13.9220VE1893LA LOUVIERE
60.2275WERY Philippe40BELSERSERUNNER1:06:121:06:274:19 13.9121VE1893GRACE-HOLLOGNE
61.467LENAERS Charles D.48BEL1:06:291:06:324:20 13.8922VE1887LIEGE
62.675TRUYERS Hugo59BELDCLA1:06:291:06:334:20 13.887VE2887LINKHOUT
63.619LAHAYE Philippe43BELRONVAU1:06:291:06:344:20 13.8823VE1887GREZ-DOICEAU
64.1172DIEPENDAELE Rudi44BELACLOTOTAL1:06:321:06:374:20 13.8724VE1886LA HESTRE
65.2230EVRARD Marc40BELRCB1:06:351:06:404:20 13.8625VE1884BRUXELLES
66.2330PERZYNA Christophe25BELACLO1:06:341:06:454:21 13.8432SEN884LA LOUVIÈRE
67.1552THIELTGEN Eric48BELHRC1:06:381:06:474:21 13.8426VE1883NOBRESSART
68.2207AUQUIER Quentin22BELSMAC1:06:471:06:574:21 13.8033SEN880NAMUR
69.1316LABBE J.Marie47BEL1:06:541:07:014:22 13.7927VE1877EGHEZEE
70.2265THIRION Jean-François43BELSERSERUNNER1:06:561:07:124:22 13.7528VE1877FLÉMALLE
71.1879LONGUEVILLE Serge43BELRCB1:07:071:07:154:23 13.7429VE1873ETTERBEEK
72.679MORONE Yves40BEL1:07:051:07:184:23 13.7330VE1873HAMOIS
73.1211VAN DEN BROECK Raf54BELACA1:07:161:07:214:23 13.728VE2870HASSELT
74.1088BAUWIN Dominique51BELRONVAU1:07:161:07:234:23 13.719VE2870DION-VALMONT
75.2219DEGUELDRE Jean-François35BELACCORCNAMUR1:07:221:07:254:23 13.7134SEN868BOUGE
76.2020KOCH Michel50BELSERUNNER1:07:101:07:264:23 13.7010VE2870ROTHEUX
77.452VANNOORENBERGHE Joel38BELRRTC1:07:271:07:324:24 13.6835SEN865ROUX
78.2058WILLEMS Christian55BEL1:07:301:07:334:24 13.6811VE2864AMAY
79.173RUYMEN Wouter18BEL1:07:301:07:344:24 13.681ESP864KOZEN
80.1434VASSART Quentin23BEL1:07:281:07:354:24 13.6736SEN864SAINT-SERVAIS
81.664PIACENTINI Marco51BELESM1:07:471:07:544:25 13.6112VE2858GOZÉE
82.513BILON Eusebio54BELESM1:07:541:08:004:25 13.5913VE2856MARCHIENNE AUPONT
83.2069BRUNEBARBE Joel36BELESM1:07:561:08:004:25 13.5937SEN855
84.2475LEVACQ Guy61BELLDLV1:07:531:08:074:26 13.562VE3855BRUXELLES
85.1328JOSEPH Bernard45BELCEPAL1:08:061:08:094:26 13.5631VE1852RHODE -SAINT-GENESE
86.2253MENGUAL Philippe45FRA1:08:051:08:114:26 13.5532VE1852PIERRY
87.2464PIROTTE Nicolas25BELSMAC1:08:061:08:164:26 13.5438SEN851
88.2382ROQUET Raphael35BEL1:08:131:08:224:27 13.5239SEN849
89.219DEWIT Raymond37BELAMAY1:08:181:08:244:27 13.5140SEN847WANZE
90.1678DE BILDERLING Georges40BELMETTET JC1:08:191:08:254:27 13.5133VE1846BIOUL
91.2335HUPPE Jean-Paul40BEL1:08:251:08:324:28 13.4834VE1844WANZE
92.959BARBIEUX Patrice50BEL1:08:361:08:384:28 13.4614VE2841MALONNE
93.2056MAMERE Jacques56BELJCRUNWALK1:08:361:08:414:28 13.4515VE2840VEDRIN
94.2019KLEIN David32BEL1:08:441:08:484:29 13.4341SEN838ARLON
95.906DELVAUX Paul63BELACA1:08:461:08:504:29 13.423VE3837DIEPENBEEK
96.205RASSART Patrick49BELACLO1:08:411:08:514:29 13.4235VE1838MORLANWELZ
97.2063STAS Johan39BEL1:08:541:08:564:29 13.4042SEN834SINT-TRUIDEN
98.2247LORGE Jean-Marc41BELJC RONVAU1:08:531:09:004:29 13.3936VE1834EGHEZEE
99.387BOSKIN Bernard19BELLES FOULEES DU 1:08:561:09:064:30 13.372ESP833STAVELOT
100.1631CADO Paul47BELFLEUBATTS1:09:041:09:094:30 13.3637VE1830LIGNY
101.223BOSCH Adrien16BELFOULEE DU PLAIS1:09:121:09:134:30 13.353ESP828VINALMONT
102.2423HENROTAUX Stéphane42BEL1:09:011:09:164:30 13.3438VE1831BELGRADE
103.556RATINCKX Jean Philippe19BELRIWA1:09:091:09:234:31 13.324ESP828BIERGES
104.1313THOLOME Luc45BEL1:09:221:09:284:31 13.3039VE1824VEDRIN
105.284MARTHOZ Pascal38BELCEPAL1:09:291:09:324:31 13.2943SEN822IXELLES
106.2238GRÉGOIRE Olivier35BEL1:09:341:09:364:32 13.2844SEN820CRUPET
107.584UBIETA Didier46BELFOULEE DU PLAIS1:09:351:09:374:32 13.2740VE1819VINALMONT
108.2308DOLHEN Pierre34BELFCHA1:09:291:09:384:32 13.2745SEN820JAUCHE
109.2203AMOND Fabien37BEL1:09:321:09:394:32 13.2746SEN819TEMPLOUX
110.2432HAUBERT Julien27BEL1:09:401:09:404:32 13.2647SEN817ERPENT
111.2071VANDECASTEELE Anick40BELSTAX1:09:371:09:414:32 13.2641VE1817SINT AMANDSBERG
112.228MARCHAL Yves37BELRUNNING WILD1:09:381:09:424:32 13.2648SEN817VEDRIN
113.2011FALZONE Croce53BEL1:09:381:09:434:32 13.2516VE2816SERAING (JEMEPPE)
114.1296COLLOT Joseph43BELANTILOB1:09:331:09:434:32 13.2542VE1817GREZ-DOICEAU
115.1069DUTRIEUX Fernand36BELVELAINES1:09:391:09:444:32 13.2549SEN815BAUDOUR
116.723DEFRERE Jean60BELCLUB VELODROME 1:09:001:09:444:32 13.254VE3825LIEGE 1
117.1260VAN BERGEN Alain46BELFLEUFLEU1:09:171:09:464:32 13.2443VE1820AISEAU
118.1390PAULUS Philippe46BELESM1:09:501:09:594:33 13.2044VE1811MONT-SUR-MARCHIENNE
119.2052DULIEU Fabrice30BEL1:09:491:09:594:33 13.2050SEN811JAMBES
120.2319DE BACKER Erwin50BEL1:09:411:10:014:33 13.2017VE2812ANTWERPEN
121.2369DARTOIS Fabrice37BELINEDISPORT1:10:011:10:044:33 13.1951SEN807
122.2446TUYTTENS Carl45BEL1:09:271:10:134:34 13.1645VE1816
123.2476VANDENBOSCH Francois24BEL1:10:111:10:244:35 13.1352SEN804
124.1814DE CRAEMER Geert40BEL1:10:231:10:264:35 13.1246VE1800BRUGGE
125.216NOSSAINT Philippe47BEL1:10:211:10:274:35 13.1247VE1800ANDENNE
126.1639DEFRAENE Patrick46BELANTILOB1:10:181:10:294:35 13.1148VE1801NODEBAIS
127.2320D'ESPALLIER Stefaan29BEL1:10:071:10:334:35 13.1053SEN803VISSENAKEN
128.1278LORANT Manu45BEL1:10:011:10:354:35 13.0949VE1804MALONNE
129.1156VERHEYEN Cédric29BEL1:10:181:10:394:36 13.0854SEN799ON
130.662HUBERT Pascal41BELARCH1:10:291:10:414:36 13.0750VE1796BRIABANT
131.436ORTEGA-TORRES Enrique49BELRRTC1:10:281:10:424:36 13.0751VE1796VILLERS PERWIN
132.57LUCCHESE Serge48BELAMAY1:10:331:10:444:36 13.0652VE1795AMAY
133.1151LANNOY Michel53BELAMAY1:10:461:10:464:36 13.0618VE2791JEHAY
134.2009DEVALÉRIOLA Patrick43BELSMAC1:10:441:10:484:36 13.0553VE1791SUARLÉE
135.2027REMY Philippe45BELACCOESM1:10:431:10:484:36 13.0554VE1791COURCELLES
136.142GHEM Michel52BELTORTUES1:10:481:10:524:37 13.0419VE2789BIERGHES
137.2318ROGIERS Arnout32BEL1:10:401:10:534:37 13.0455SEN791ASSE
138.2031VERBESSELT Kevin27BEL1:10:501:10:544:37 13.0356SEN788BRUXELLES
139.235FHOUBART Cecile40BELRONVAU1:10:511:10:594:37 13.021AI1787JODOIGNE
140.2436LALLEMAND Remy21BELRCNML1:10:471:11:014:37 13.0157SEN787
141.485ROSILLON Dominique50BELARCH1:10:531:11:034:37 13.0020VE2786SOREE
142.2407HAUSTRATE Frederic41BEL1:11:001:11:054:37 13.0055VE1783
143.297BOUCHAT Albert40BELJOGGPLUS1:11:021:11:074:38 12.9956VE1783MEUX
144.1136GAUTIER Jacques45BEL1:11:011:11:084:38 12.9957VE1783MEUX
145.852PEETERS Gerard54BELANTILOB1:11:001:11:094:38 12.9921VE2782HAMME-MILLE
146.266ROUSSEAU David34BELAXA TEAM1:10:401:11:164:38 12.9758SEN787VILLE EN HESBAYE
147.313FLEGRAND Francine37BELVO2 NAM1:11:141:11:174:38 12.962DAM778VEDRIN
148.1370LEWILLION Philippe41BELFER1:11:091:11:174:38 12.9658VE1779FRAMERIES
149.2064DE NARDI Jean-Carlo45BEL1:11:141:11:184:38 12.9659VE1777SAINT-SERVAIS
150.2359MONIOTTE Gabriel37BEL1:11:191:11:204:38 12.9559SEN775BONINNE
151.837CEUPPENS Paul46BELHAMURABI1:10:451:11:224:39 12.9560VE1784LINT
152.2051PIRON Christophe28BELRCB1:11:151:11:384:40 12.9060SEN775HANNUT
153.557FONDU Jacques57BELFLEUESM1:11:301:11:394:40 12.9022VE2771MONT-SUR-MARCHIENNE
154.2352COLLETTE Herve46BEL1:11:281:11:404:40 12.8961VE1771
155.355ROBERTI Xavier24BELRFCL1:11:331:11:474:40 12.8761SEN770LIEGE
156.193DI BIASE Renato42BELLES BOUFFIOL'S1:11:411:11:484:40 12.8762VE1767COUILLET
157.521RAEYMAEKERS Ludovic53BELBVAC1:11:251:11:504:40 12.8623VE2771EKEREN
158.176KRIER Benoit36BEL1:11:491:11:574:41 12.8462SEN765SELANGE
159.2331DENIS Romain23BEL1:11:451:11:594:41 12.8463SEN765
160.2358FCOUQUELET Laurence38BELSPRIMONT1:11:521:11:594:41 12.843DAM763HAMOIR
161.2322MOLITOR 46BELARCH1:11:401:12:004:41 12.8363VE1765
162.2034BINKERT Marc46BELLDLV1:12:021:12:054:41 12.8264VE1760GANSHOREN
163.2332JADOT Frederic35BELARCH1:12:031:12:064:41 12.8264SEN759
164.311CADET Luc46BELANTILOB1:12:001:12:104:42 12.8065VE1759OTTIGNIES
165.357CREMER Patrick49BELFCHA1:12:071:12:154:42 12.7966VE1757HANNUT
166.555FLEROUX Claire26BEL1:12:101:12:224:42 12.774DAM756LAMBERMONT
167.1867RUELLE Jean35BELETCHIEVRE1:12:151:12:264:43 12.7665SEN754WEZEMBEEK-OPPEM
168.727LEUS Stefan40BEL1:12:011:12:274:43 12.7567VE1757HOLSBEEK
169.1980VIDICK Jean-Luc54BEL1:12:231:12:284:43 12.7524VE2752BRUXELLES
170.410HANOTIAUX Michel41BELRRTCH1:12:181:12:404:44 12.7268VE1752GERPINNES
171.2424PONCIN Pierre52BELHRCHRC1:12:251:12:414:44 12.7125VE2750LONGLIER
172.2061HUBERT Roger49BELSPTWAVRE1:12:351:12:424:44 12.7169VE1747MARIAKERKE
173.215STAPELLE Eric44BELSMAC1:12:381:12:454:44 12.7070VE1746BOIS DE VILLERS
174.240FONTAINE Bernard44BELIXELKURISTO1:12:511:12:534:44 12.6871VE1743BRUXELLES
175.639DE CORTE Jeroen19BEL1:12:461:12:554:45 12.675ESP744VIELSAM
176.1392DE MASI Gianni54BELFLEUFLEU1:12:501:12:564:45 12.6726VE2742WANFERCEE BAULET
177.2364DIEDEREN Stephen29BEL1:12:371:12:574:45 12.6766SEN745
178.247STIERS Pieter18BEL1:12:531:12:584:45 12.666ESP740NIEUWERKERKEN
179.1650NEYMAN Eric39BEL1:12:511:12:594:45 12.6667SEN741HERON
180.1773PAHAUT Christian50BELANTILOB1:12:451:13:044:45 12.6527VE2742LIMAL
181.2454FMAZAREVA Natalia46BEL1:13:001:13:074:45 12.642AI1738
182.392FBRIALMONT I Irene50BEL1:13:031:13:124:46 12.621AI2737SPA
183.2278WINANDY Guy51BELSPA1:13:041:13:134:46 12.6228VE2736VERVIERS
184.2085VAN KERREBROECK Pol56BEL1:13:101:13:154:46 12.6129VE2734HAILLOT
185.2029YAGUE SANZ Louis Michel41BEL1:12:491:13:174:46 12.6172VE1739NAMUR
186.914FVAN HOOF Wella44BELLIER1:13:161:13:214:46 12.603AI1732BERLAAR
187.3005CG26991 BEL1:13:231:13:304:47 12.571XXX730
188.519VANTSIOTIS Anasthase54BELFLEU1:13:251:13:304:47 12.5730VE2729LE ROUX
189.1070CARTON Hubert51BELARCH1:13:191:13:304:47 12.5731VE2730SOVET
190.1777MARTIN Eric44BEL1:13:121:13:404:48 12.5473VE1731WANDRE LIEGE
191.2326DEHARLIN Hugues39BELTNT1:13:341:13:434:48 12.5368SEN725
192.2445MAOUCHILAINE Massn?38BEL1:13:261:13:464:48 12.5369SEN727
193.2378LEBRUN Christophe36BELFCHA1:13:301:13:474:48 12.5270SEN725
194.1267BOGAERT Bertrand51BELDSDS RUNNING1:13:411:13:504:48 12.5132VE2722BAUDOUR
195.1620HUME Yvan54BELNAC1:13:191:13:534:48 12.5133VE2727NIVELLES
196.2453LUYEFASSEEL Christophe36BELVICO1:13:081:13:544:48 12.5071SEN730
197.1765VAN DER LINDEN Paul58BEL1:13:481:13:564:49 12.5034VE2719MALONNE
198.692ROBERT Michel57BELBOUFFIOL1:13:301:13:584:49 12.4935VE2723GERPINNES
199.2001ADYNS Vincent46BELT.N.T.1:13:501:13:594:49 12.4974VE1718WEPION
200.2396MAIRLOT Eric37BELOCAN1:13:491:14:014:49 12.4872SEN718HERON
201.1989FDEMOULIN Brigitte47BELSMAC1:13:551:14:024:49 12.484AI1716LUSTIN
202.1333MARIEN Rik58BELVACH1:14:001:14:024:49 12.4836VE2714HASSELT
203.2468GRAPPE Philippe46BELLDLV1:13:551:14:044:49 12.4875VE1715
204.592VAUDOISEY Pascal45BELRCB1:13:411:14:054:49 12.4776VE1718UCCLE
205.1344AGNELLI David40BELFAC1:13:541:14:074:49 12.4777VE1715FLEMALLE
206.1617PINDEVILLE Christian59BELRIWA1:13:531:14:144:50 12.4537VE2715WAVRE
207.2394DUCHESNE Adrien25BELSMAC1:14:071:14:174:50 12.4473SEN711
208.2224DESCAMPS Xavier42BEL1:13:541:14:194:50 12.4378VE1714FRANC-WARET
209.2297MARTEAU Jacky46BELRCB1:14:041:14:224:50 12.4279VE1711BRUXELLES
210.182BALAND Pascal43BEL1:14:021:14:224:50 12.4280VE1711HORNU
211.695DE DAPPER David34BELKIA LELEUX1:14:121:14:264:50 12.4174SEN708BRUXELLES
212.2474TIMSONET Gerald35BEL1:14:061:14:294:51 12.4175SEN709
213.2312LEVACQ Corentin26BELESCLDLV1:14:241:14:384:51 12.3876SEN704BRUXELLES
213.2470MULS Sebastien28BELLDLV1:14:241:14:384:51 12.3876SEN704WEMMEL
215.201MANCINI Michel60BELSERSERUNNER1:14:331:14:414:51 12.375VE3701SERAING
216.2248MAKUMBA Benjamin30BEL1:14:311:14:434:52 12.3778SEN701
217.567DECLERCQ Georges49BELENJAMBÉE1:14:331:14:484:52 12.3581VE1700ETTERBEEK
218.2402BOSSIROY Claude31BEL1:13:441:14:494:52 12.3579SEN712FLAWINNE
219.2417HENRY Mickael28FRAROMBAS1:14:511:14:544:52 12.3480SEN695LE VAL D AJOL
220.1415LOUIS Vincent41BELARCH1:14:331:14:554:52 12.3382VE1699CINEY
221.2321BECKERS Serge45BELSERSERUNNER1:14:331:14:564:52 12.3383VE1699LIÈGE
222.2433BIELEN Michel48BEL1:14:451:14:584:53 12.3384VE1695FLEMALLE
223.2310HECQ Olivier41BEL1:14:481:14:594:53 12.3285VE1694ANDENNE
224.656MONTESSINO J.Paul61BELCRACESM1:14:551:15:024:53 12.316VE3692MARCHIENNE-AU-PONT
225.2068FADANT France31BELESM1:15:101:15:154:54 12.285DAM688FORCHIES-LA-MARCHE
226.378BLAUWART Emmanuel39BELETCHIEVRE1:15:031:15:204:54 12.2781SEN690HERCHIES
227.2025PARDO GARCIA Juan Carlos43BELSER1:14:571:15:204:54 12.2786VE1691SERAING
228.360WAROUX Patrick44BELETCHIEVRE1:15:041:15:214:54 12.2687VE1689CASTEAU
229.629WILMET Claude55BELARCH1:15:031:15:234:54 12.2638VE2688
230.2395WATELET Francois31BEL1:14:461:15:244:54 12.2582SEN692
231.617BAIJOT Bernard46BELJCCS1:14:591:15:254:54 12.2588VE1688HOUDREMONT
232.2510DE VOS Koen42BEL1:14:541:15:264:54 12.2589VE1689HEVERLEE
233.255FOURNY Philippe52BELSERUNNER1:15:271:15:334:55 12.2339VE2681VAUX S/S CHÈVREMONT
234.1815DIEUDONNE Emile54BELARCH1:14:411:15:344:55 12.2340VE2692DINANT
235.1320SPELMANS Christophe41BELPOMPIERS B1:15:241:15:344:55 12.2390VE1681TUBIZE
236.538MOLLE Jean-Louis44BELUACRRTC1:14:331:15:344:55 12.2391VE1693CHATELINEAU
237.1841FFAVEAUX Patricia40BELARCH1:15:321:15:374:55 12.225AI1678CINEY
238.2090SERGYSELS Pascal39BELJOGGPLUS1:15:321:15:394:55 12.2183SEN678GANSHOREN
239.2505VANDENHAUTE Christophe40BELWALCOURSE1:15:111:15:404:55 12.2192VE1683LANEFFE
240.2324MONCUIT Dominique50FRAASPTT1:15:391:15:434:55 12.2041VE2675SARRY
241.1464DESSEILLE Ernest53BEL1:14:541:15:454:56 12.2042VE2686WEPION
242.426QUINET Bernard55BELFLEU1:15:301:15:474:56 12.1943VE2677GILLY
243.1967DEVOS Serge36BELJOGGANS1:15:371:15:494:56 12.1984SEN675BRUXELLES
244.2349NATALIS Benoît20BEL1:15:401:15:504:56 12.1885SEN674SOMME-LEUZE
245.579BELGEONNE Christian54BEL1:15:461:15:514:56 12.1844VE2672WEPION
246.604DESSAMBRE Marcel58BELOCANJOGGPLUS1:15:481:15:524:56 12.1845VE2671NAMECHE
247.337DE LEENER J.Marie53BELNAC1:15:501:15:554:56 12.1746VE2670LOT
248.1341MICHA Pol55BELEPIDEMIE1:15:531:15:594:57 12.1647VE2669VOROUX-LEZ-LIERS
249.553VANDAM Jean44BELANTILOB1:15:521:16:024:57 12.1593VE1668COURT SAINT ETIENNE
250.2298BERTHET Alain49BEL1:15:461:16:024:57 12.1594VE1670DION VALMONT
251.2494GIVRON Regis17BEL1:15:201:16:054:57 12.147ESP676JUMET
252.1439BERTRAND Philippe41BELCSDYANTILOB1:15:571:16:074:57 12.1495VE1666COURT SAINT ETIENNE
253.693CHAUVIER J.Pierre47BELWAL'COURSE1:15:511:16:094:57 12.1396VE1667YVES-GOMEZEE
254.638DUBOIS Pierre41BEL1:15:361:16:104:57 12.1397VE1671NATOYE
255.232VANDENBROECK Tom29BELDCLA1:16:091:16:134:57 12.1286SEN662
256.2084AUPAIX Pierre44BELONHOXY20001:15:521:16:144:58 12.1298VE1666BRAINE-LA-COMTE
256.2044MOMMAERTS Georges66BELRCB1:15:511:16:144:58 12.127VE3666AUDERGHEM
258.623PISCART Pierre47BELONHOXY20001:15:521:16:144:58 12.1299VE1665MONS
259.2255MONIOTTE Gilles-Antoine37BEL1:16:141:16:154:58 12.1287SEN659NAMUR
260.2309DUBOIS Pascal45BEL1:16:031:16:164:58 12.12100VE1661GODINNE
261.2487WAUTHY Dominique49BEL1:15:481:16:184:58 12.11101VE1665RHISNES LA BRUYÈRE
262.2258PIERLOT Serge49BEL1:16:131:16:284:58 12.08102VE1659ANDENNE
263.2416FSCHAFFRATH Ginette42BELSPRIMONT1:16:211:16:284:58 12.086AI1656COMBLAIN-FAIRON
264.1182GRANDMONT Andre46BELARCH1:16:191:16:314:59 12.08103VE1656DINANT
265.310ANTENUCCI Mauro50BELFLEUESM1:16:051:16:324:59 12.0748VE2659GOSSELIES
266.2049DE SIMONE Roberto53BELSERSERUNNER1:16:261:16:344:59 12.0749VE2654SERAING (BONCELLES)
267.2516NSAAD Walid22BEL1:16:131:16:344:59 12.0788SEN656
268.106DUPONT Roger50BELCAFSPORPLUS1:16:121:16:364:59 12.0650VE2656LA ROCHE-EN -ARDENNES
269.2340FFAVIER Anne49BEL1:16:331:16:384:59 12.067AI1651
270.691MERCIER Pascal48BEL1:16:331:16:384:59 12.06104VE1651KAIN
271.3003FOCHOA DE MICHELENA Maria46BELCACE1:16:281:16:404:59 12.058AI1651BRUXELLES
272.1881FBLAISE Christiane45BELARCH1:16:271:16:485:00 12.039AI1651ANTHEE
273.2379OULAD Ahmed48FRA1:16:421:16:505:00 12.03105VE1647VIREUX WALLERAND
274.2465SERVAIS Johan31BEL1:16:111:16:505:00 12.0389SEN654HUY
275.382SERON Benoit46BEL1:16:441:16:545:00 12.02106VE1646MALONNE
276.1255ZRINSKI Karl53BELFLEUFLEU1:16:501:16:565:00 12.0151VE2644BOUSVAL
277.2400LEJEUNE Jean-Luc48BEL1:16:451:16:575:00 12.01107VE1645
278.1307HARMEGNIES Michel46BELSPIBOR1:16:371:16:575:00 12.01108VE1646HORNU
279.1339FAFCHAMPS Eudore47BELRFCL1:16:461:16:595:00 12.00109VE1644VOTTEM
280.2210BUSTIN Alain57BELJOGGPLUS1:16:531:16:595:00 12.0052VE2642BOUGE
281.1282FSEMLALI Zaina38BELRCBGAL1:16:571:17:015:01 12.006DAM640HEVILLERS
282.1270VANWYMELBEKE Laurent36BELJCL1:16:571:17:125:01 11.9790SEN640DOTTIGNIES
283.598LECOMTE Michel47BELHEIN1:16:411:17:125:01 11.97110VE1643ASSESSE
284.1643SMETS Johan41BEL1:16:541:17:185:02 11.95111VE1640LUBBEEK
285.397FDEJMEK Paulina31BEL1:17:091:17:215:02 11.957DAM636BRUXELLES
286.346LELOUP Yves53BELFLEU1:17:291:17:355:03 11.9153VE2631ST-AMAND
287.2499DECERF Olivier22BEL1:17:011:17:385:03 11.9091SEN637
288.2316BRUNKE Henrich34BEL1:17:021:17:415:03 11.8992SEN636NAMUR
289.2314ROGER Jean Christophe38FRA1:17:301:17:445:03 11.8993SEN629GIVET
290.2277WILLEMS Luc46BEL1:17:271:17:465:03 11.88112VE1630ST-MARTIN
291.2517GILLAIN Jean-Marie52BELGERPINNES&CO1:16:431:17:535:04 11.8654VE2640GERPINNES
292.748BOONEN Gregor33BELAMAY1:17:171:17:585:04 11.8594SEN631HUY
293.2276WILLEMART Marco19BELCANICROSS TEAM1:16:411:18:025:05 11.848ESP640NAMUR
294.2371OOSTLAND Stephane37BEL1:17:531:18:035:05 11.8495SEN622GEMBLOUX
295.1616SOMERS Ludo44BELHAMURABI1:17:301:18:075:05 11.83113VE1627LINT
296.2212FCAUDRON Milly36BELCANICROSS TEAM1:16:501:18:095:05 11.828DAM636FLOREFFE
297.1122ZYLBERBERG Luc55BELJOGGANS1:18:061:18:185:06 11.8055VE2618BRUXELLES
298.1465LEGAY Jean Jacques42BELOTC1:17:521:18:255:06 11.78114VE1621MONT SAINTE GENEVIEVE
299.2463VAN DER KAA Vincent37BELAXA TEAM1:17:501:18:255:06 11.7896SEN621
300.920CLAMOT Daniel51BELKURISTO1:18:221:18:315:06 11.7756VE2613LIGNY
301.269NENNEN Arnaud44BELSMACGELBRESSEE1:18:201:18:335:07 11.76115VE1613GELBRESSEE
302.2272VOYEUX David35BEL1:18:201:18:345:07 11.7697SEN612AISEAU
303.25HANNOTTE Christophe34BELING1:18:081:18:365:07 11.7698SEN615NOVILLE-LES-BOIS
304.1883MAURO Calogero67BELSERSERUNNER1:18:281:18:375:07 11.758VE3610SERAING
305.2483BAUDOT Christophe32BEL1:18:041:18:395:07 11.7599SEN615RHISNES
306.135BURRION Paul-Henri45BELRTBF1:18:071:18:405:07 11.75116VE1614NAMUR
307.3002CEULEMANS Nicolas37BELANTILOB1:18:071:18:405:07 11.75100SEN613INCOURT
308.194VUYE Thierry45BELRCB1:18:171:18:425:07 11.74117VE1611WATERLOO
309.293FCARTIAUX Muriel38BELRCBRCNAMUR1:18:301:18:435:07 11.749DAM608IXELLES
310.2390ROELANDTS Bernard43BEL1:18:031:18:485:08 11.73118VE1614
311.2269VELIA Ludovic50FRAASBAZINVILLE1:18:221:18:495:08 11.7257VE2608BAZINVILLE
312.533MARTIN Laurent26BEL1:18:411:18:575:08 11.70101SEN604LÉGLISE
313.2450THEUNISSEN Patrice41BEL1:18:151:18:585:08 11.70119VE1609
314.992LETHE Vincent47BELRONVAU1:18:371:18:595:08 11.70120VE1604TOURINNES-SAINT-LAMBERT
315.614MASALA Vincenzo40BELACLO1:18:451:19:015:08 11.69121VE1602HAINE-SAINT-PIERRE
316.1819DAMBLON Georges56BELACLO1:18:391:19:015:08 11.6958VE2603PETIGNY
317.676LESTRATE Gabriel55BELHEIN1:18:321:19:035:08 11.6959VE2604FLOREE
318.1968WALLÉE Alain51BELTENDONS1:18:321:19:065:09 11.6860VE2604LA HULPE
319.365DESCHUYTENEER Marc28BELTORTUES1:19:041:19:075:09 11.68102SEN596CEROUX-MOUSTY
320.506DEPAS Marcel62BELSERSERUNNER1:18:531:19:085:09 11.689VE3598SERAING
321.2508MERCKEN Xxx46BELLDLV1:18:571:19:115:09 11.67122VE1596
322.2338HENIN Benoit27BEL1:18:101:19:205:10 11.65103SEN607FERNELMONT
323.735JORDANT Benoit45BELARCHJOGGPLUS1:19:031:19:245:10 11.64123VE1594YVOIR
324.160RUYMEN Michel51BEL1:19:101:19:265:10 11.6361VE2592SINT-TRUIDEN
325.812BATISTIC Patrick43BELRONVAU1:19:031:19:275:10 11.63124VE1594FARCIENNES
326.2514LAMY Stephane41BEL1:18:221:19:305:10 11.62125VE1603MAILLEN
327.288HEINEN Henri63BELSERSERUNNER1:19:191:19:335:10 11.6210VE3589SERAING
328.2442ROUCEAU Eric45BEL1:19:131:19:345:10 11.61126VE1590
329.396HANOTIAUX Éric43BELRRTCH1:18:341:19:365:11 11.61127VE1599CHARLEROI
330.45PLOYAERT Eric52BELWALCOURT1:18:581:19:385:11 11.6062VE2593LOBBES
330.43SEGHIN Vincent42BELESM MONCEAU1:18:581:19:385:11 11.60128VE1593THUIN
332.1058VERHOFSTADT Camille62BELJC HSH1:19:281:19:425:11 11.5911VE3585MARBAIX-LA-TOUR
333.1502BOUCHET Davy21BELHRC1:19:171:19:445:11 11.59104SEN587IZEL
334.801FVANDERBEMDEN Axelle32BEL1:19:351:19:465:11 11.5810DAM582WALHAIN
335.725THIRY Alain49BEL1:18:531:19:465:11 11.58129VE1592AWIRS
336.569CLEMENT Serge47BELHRC1:19:291:19:555:12 11.56130VE1583HACHY
337.2036FALQUE Pierre46BELRCB1:19:461:19:595:12 11.55131VE1579LA HULPE
338.609EDOM Michel32BEL1:19:451:20:025:12 11.55105SEN579SIGNEULX
339.492TONDUS Yves54BELBOUFFIOL1:20:041:20:055:13 11.5463VE2574SART EN FAGNE
340.1748DECROISSON Pierre42BELHEIN1:19:341:20:075:13 11.53132VE1580FLOREE
341.1669FFOSTER Christiane42BELFLEU1:20:021:20:085:13 11.5310AI1574BOUSVAL
342.114FMARIËN Jessica15BEL1:19:481:20:095:13 11.531ESF576BRUXELLES
343.2079PRETER Serge50BELSWIFT JOGGING1:20:051:20:105:13 11.5364VE2572
344.2443VERLEYE Maxime21BEL1:19:261:20:135:13 11.52106SEN581
345.2377HANOTTE Jean47BEL1:19:421:20:145:13 11.52133VE1577NAMUR
346.2448LEJEUNE Jean-Claude53BELSERSERUNNER1:20:081:20:145:13 11.5265VE2570SOUMAGNE
347.2234GABRIEL Frederic32BELASSA1:19:191:20:205:13 11.50107SEN581ROCHEFORT
348.2411JACQMIN Nathanael42BEL1:19:581:20:265:14 11.49134VE1572MALONNE
349.2266TRUANT Michel55BEL1:20:191:20:275:14 11.4966VE2566JAMBES
350.2086VAN GENECHTEN 46BELAXA TEAM1:19:521:20:285:14 11.48135VE1572
351.503MENAGER Thierry49BELRCB1:20:071:20:295:14 11.48136VE1568ITTERBEEK
352.2355FDELLOT Marie-Laure43BEL1:20:151:20:305:14 11.4811AI1567MEISE
353.1660GLEVICZKY Andre45BELTITAN1:20:081:20:325:14 11.47137VE1567HEVILLERS
354.975LÉONARD Marc38BELFCHA1:20:131:20:365:15 11.46108SEN566VILLERS-LE-PEUPLIER
355.1694VERMEIREN Jan55BELMARCKLOP1:20:311:20:395:15 11.4667VE2561MINDERHOUT
356.721PONCIN Gerard51BEL1:20:351:20:515:15 11.4368VE2560LONGLIER
357.2434DE MAERE Francois33BEL1:20:281:20:535:16 11.42109SEN562ERPENT
358.1454MUYTJENS Rene62BELANTILOB1:20:361:20:555:16 11.4212VE3559OTTIGNIES
359.745POMES Jean-Paul57BEL1:20:291:20:565:16 11.4269VE2560NOBRESSART
360.2477CHAVANNE Bertrand34BEL1:20:281:21:015:16 11.41110SEN560MARNEFFE
361.443FDE CONINCK Stephanie29BEL1:20:551:21:025:16 11.4011DAM554ARLON
362.1828EVRARD Michel50BELARCH1:20:511:21:035:16 11.4070VE2554WELLIN
363.1847DE CONINCK Frederique36BELFCHAEQNMIL1:21:031:21:035:16 11.40111SEN551ARLON
364.2409LENNEBERT Philippe46BEL1:20:431:21:115:17 11.38138VE1555
365.2254MOISSE Cedric26BELFCHA1:20:411:21:175:17 11.37112SEN555HANNUT
366.2231FONTAINE Pol56BEL1:20:541:21:185:17 11.3771VE2552CHATELINEAU
367.2260RENIER Dominique43BELRTBRAIVES1:20:441:21:195:17 11.36139VE1554TOURINNE
368.2003BARNABA Fabrice42BEL1:20:551:21:225:18 11.36140VE1551AUTELHAUT-ARLON
369.552AIT ABDERAMAN Lahoucine35BELSAINT-BERNARD1:20:461:21:225:18 11.36113SEN553MANAGE
370.1173PLATTEAU Emmanuel36BELETCHIEVRE1:20:521:21:225:18 11.36114SEN551BOUVIGNIES
371.2301POTTY Laurent32BELRCB1:20:331:21:235:18 11.35115SEN555LIMELETTE
372.2387CANON Mathieu31BELLDLV1:21:101:21:255:18 11.35116SEN546
373.2281FBUZIN Donatienne40BELARCH1:21:061:21:265:18 11.3512AI1546HAN SUR LESSE
374.2047VAN DOREN Christian44BELRCB1:20:531:21:275:18 11.34141VE1549SAINT-GILLES
375.2221DELPIERRE Matthieu27BEL1:20:521:21:315:18 11.34117SEN549NAMUR
376.2512NOEL Mehdi34BEL1:20:371:21:365:18 11.32118SEN552LAVAUX STE ANNE
377.2252MELOTTE Henri43BELRUNPRO1:21:091:21:405:19 11.31142VE1544PROFONDEVILLE
378.2302FSORS Julie31BELRCB1:21:221:21:415:19 11.3112DAM541ETTERBEEK
379.413LIVEMONT Emmanuel46BELRTTC1:20:361:21:415:19 11.31143VE1551SUARLÉE
380.2263SORS Thomas34BEL1:21:231:21:425:19 11.31119SEN540OVERIJSE
381.1469QUINET J.Paul57BELFLEU1:21:311:21:465:19 11.3072VE2538GILLY
382.208BOUTEFEU Jacques47BELRRTC1:20:511:21:525:19 11.29144VE1546MONTIGNIES-SUR-SAMBRE
383.1445MARIEN J.Luc49BELJOGGANS1:21:331:21:555:20 11.28145VE1536BRUXELLES
384.660VANCRUTSEN Christophe24BEL1:21:231:21:565:20 11.28120SEN539SERAING
385.2067SORNASSE Pascal48BELSMAC1:21:441:21:575:20 11.28146VE1533BEUZET
386.2339BEHETS Marc52BEL1:21:561:22:055:20 11.2673VE2530SPONTIN
387.641VERSTICHEL Alain45BELESM1:21:111:22:075:20 11.25147VE1540THUIN
388.2270VERBRUGGEN Eddy49BEL1:21:091:22:085:20 11.25148VE1540BERLAAR
389.1269DEPOORTER Yves42BELIBM SPORT1:21:121:22:115:21 11.24149VE1539VILVOORDE
390.1844BILLY Jacques-Henry37BELHRC1:21:541:22:175:21 11.23121SEN529ARLON
391.1855ALBERTANI Patrice54BELUACDILAVILE1:22:191:22:255:22 11.2174VE2523CHATELINEAU
392.2070COOREMAN Dirk51BEL1:21:321:22:265:22 11.2175VE2533HEIDE-KALMTHOUT
393.2243LELEU Laurent37BEL1:21:551:22:285:22 11.20122SEN528ANHÉE
394.755VAN HEULENBERGHE Frank51BEL1:22:091:22:335:22 11.1976VE2524GENT
395.1628CHAVATTE Roger59BELACG1:22:071:22:365:22 11.1977VE2524SCHENDELBEKE
396.2452ROMEDENNE Pierre31BELARCH1:21:441:22:375:22 11.18123SEN529
397.2392WOIT Jean-Christophe33BEL1:21:561:22:375:22 11.18124SEN526HUY
398.2513MATHY Jean-Luc54BELRCNAMUR1:21:541:22:425:23 11.1778VE2526NAMUR
399.2015GHYS Daniel52BELJOGGANS1:22:341:22:485:23 11.1679VE2517BRUXELLES
400.1374FALEXANDRE Francoise52BELOCAN1:22:401:22:535:23 11.152AI2515VEDRIN
401.754LARMINIER Claude53BELSER1:22:491:22:555:24 11.1480VE2512LIEGE
402.2073BONA Guy57BELSERSERUNNER1:22:331:22:555:24 11.1481VE2515SERAING
403.1644VANVOORDEN Philip37BELVACH1:22:411:22:575:24 11.14125SEN513HASSELT
404.2351DE VLEESCHAUWER Xxx28BEL1:21:521:22:585:24 11.14126SEN524
405.2439NIEDERKORN Thierry43FRA1:22:421:23:005:24 11.13150VE1513FLOING
406.2519DERWEDUWERS Frederic36BEL1:22:121:23:075:24 11.12127SEN519NAMUR
407.2010DUTRIEUX Ronald39BEL1:22:131:23:085:24 11.11128SEN518BELGRADE
408.2095SATEUR Alain42BEL1:23:051:23:105:25 11.11151VE1506EMINES
409.2287DEPRET Jean Marc41BELESM1:22:221:23:105:25 11.11152VE1515GOUTROUX
410.840DE KEYSER Gust59BELJOGGANS1:22:361:23:165:25 11.1082VE2512VLEZENBEEK
411.537FAMEYS Chantal40BELRUN SPIRIT1:23:021:23:175:25 11.0913AI1506ROOSDAAL
412.1963BISIAU Philippe46FRA1:22:461:23:185:25 11.09153VE1509LILLE
413.2088FROGIERS Anne40BELKAPUCIJN1:22:491:23:205:25 11.0914AI1508
414.2222DELVAUX Philippe44BEL1:23:091:23:215:25 11.09154VE1503JAMBES
415.2473DELPERDANGE Patrick39BEL1:22:201:23:215:25 11.09129SEN513
416.646HUART Louis50BELANTILOB1:22:541:23:225:25 11.0883VE2506HULDENBERG
417.1528WILLEMS Simon37BEL1:22:461:23:225:25 11.08130SEN507MIGNAULT
418.2328FBELABBES Myriam33BELCEPAL1:23:081:23:235:25 11.0813DAM502BRUXELLES
419.2357LEONARD Marc43BEL1:22:551:23:245:25 11.08155VE1504
420.669BRUYERE Francis60BELDSAPH1:22:391:23:245:25 11.0813VE3507HAVRE
421.2491JANNE Xavier43BEL1:22:561:23:265:26 11.07156VE1503
422.1614JANSSEN Serge40BEL1:22:431:23:265:26 11.07157VE1506FAULX-LES-TOMBES
423.2511BLYAERT Luc45BELACHILLES1:23:001:23:325:26 11.06158VE1501HEVERLEE
424.1340MALENGREAUX Patrice45BELTORTUES1:23:131:23:335:26 11.06159VE1498BRAY
425.1734SIOLI Serge48BELESM1:22:471:23:365:26 11.05160VE1503MARCHIENNE-AU-PONT
426.2462GILEN Francois-Xavier27BEL1:23:001:23:375:26 11.05131SEN500AYWAILLE
427.379FMESTACH Cristine46BELFLEU1:23:331:23:395:26 11.0515AI1493MARBAIS
428.1599SCIEUR Jean-Pol52BELFLEU1:23:111:23:395:26 11.0584VE2497WANFERCEE-BAULET
429.1198GOOSSENS Jean51BELSPTWAVRE1:23:311:23:415:27 11.0485VE2492WAVRE
430.1480BOUCHET Fabrice48BELHRC1:23:161:23:445:27 11.04161VE1495IZEL
431.2217DECHANET Claudy54BELRTBRAIVES1:23:041:23:445:27 11.0486VE2497BRAIVES
432.2341FROIDBISE Jean-Luc46BELLES FOULEES DU 1:23:131:23:475:27 11.03162VE1495HUY
433.2054ANDRE Alain47BELSERUNNER1:23:241:23:515:27 11.02163VE1492SERAING
434.2438STROBBE Yves45BELACRHO1:23:101:23:575:28 11.01164VE1495FROYENNES
435.853GARBAR Didier47BEL1:23:301:24:015:28 11.00165VE1490CLERMONT
436.20DEGROOT Jean59BELFCHA1:23:491:24:055:28 10.9987VE2485HANNUT
437.1483SCANDARI Jamal29BEL1:23:511:24:145:29 10.97132SEN485
438.1442LEBEAU Fernand62BELAXA TEAM1:24:161:24:185:29 10.9614VE3479ZELLIK
439.2218DECROIX Olivier41BEL1:23:441:24:185:29 10.96166VE1485DAVE
440.2337FBOULANGER Magali36BEL1:24:131:24:205:29 10.9614DAM479BOURLERS
441.2082DELINCE J54BEL1:23:281:24:255:29 10.9588VE2488
442.1938DIRICQ Dominique48BELNAC1:23:541:24:275:30 10.94167VE1482OBAIX
443.642VERMEIR Gustaaf44BELAVZK1:24:131:24:295:30 10.94168VE1478AARSCHOT
444.673CAMPION Sylvain44BEL1:24:141:24:315:30 10.93169VE1477DIEPENBEEK
445.2422HUEZ Stephan32BEL1:24:021:24:325:30 10.93133SEN479
446.172TEICHMANN Paul48BEL1:23:571:24:335:30 10.93170VE1480TERVUREN
447.616NOEL Gérard55BELARCH1:24:171:24:355:30 10.9289VE2475NATOYE
448.2250MARMIGNON Christian53BEL1:24:101:24:355:30 10.9290VE2476WIERDE
449.1461FPAAL Margueritte39BEL1:24:191:24:365:30 10.9215DAM474FLAWINNE
450.1153MASSART Victor54BELACLO1:24:241:24:415:30 10.9191VE2472COUILLET
451.1498LEZZERI Julio50BELTORTUES1:24:171:24:485:31 10.9092VE2474OBOURG
452.2509VOELL Guenter54BEL1:24:021:24:485:31 10.9093VE2476
453.2472DELPERDANGE Alain37BEL1:23:501:24:525:31 10.89134SEN479JODOIGNE
454.1667COLLIN Roger59BELSMAC1:24:081:24:555:31 10.8894VE2474ST-SERVAIS
455.653FRANKINET Albert60BELMPWSERUNNER1:24:491:24:585:32 10.8715VE3465SERAING
456.2345FGILSON Nicole51BELSERSERUNNER1:24:021:24:585:32 10.873AI2475SENY
457.2425RENARD Georges57BELHRCHRC1:24:441:25:005:32 10.8795VE2465NEUFCHÂTEAU
458.425MOREAU Jean-Louis47BELJCCS1:24:301:25:015:32 10.87171VE1468TOERNICH
459.2353HENROTIN Pierre28BEL1:25:031:25:115:32 10.85135SEN461
460.2232FORGET Réginald41BEL1:24:291:25:115:32 10.85172VE1467NAMUR
461.1587BLOMMAERT Edward54BELMARCKLOP1:25:041:25:135:33 10.8496VE2459DOHAN
462.1580PAYEN Pierre59BELRCB1:24:141:25:145:33 10.8497VE2470ETTERBEEK
463.476ISTAZ Jose50BEL1:24:391:25:175:33 10.8398VE2464ANS
464.2039HIBO Benoît51BEL1:24:591:25:205:33 10.8399VE2459NAMUR
465.2493PATERNOSTRE Jean-Jacques45BELTHIMEON1:24:341:25:205:33 10.83173VE1464
466.2354COLMANT Olivier49BELWING HELI1:24:301:25:215:33 10.83174VE1464INCOURT
467.366FLANSLOTS Viviane42BELAVN1:24:421:25:215:33 10.8316AI1462MERKSPLAS
468.2385BALBEUR Jean-Francois32BEL1:24:541:25:215:33 10.83136SEN459
469.1355LAMBRECHT Alain39BEL1:24:491:25:245:33 10.82137SEN459SAINT GEORGES SUR MEUSE
470.2334DOUCET Pierre56BEL1:24:451:25:265:33 10.82100VE2460WÉPION
471.2045RIGOT Serge59BELRCB1:24:371:25:265:33 10.82101VE2461AUDERGHEM
472.674THONON Jean-Marc40BEL1:24:531:25:285:33 10.81175VE1457CIPLET
473.539FSECCI Doriane42BELACLO1:25:201:25:315:34 10.8017AI1451MORLANWELZ
474.2370BONSIGNORE Vincent48BELACLO1:25:131:25:315:34 10.80176VE1452LA LOUVIÈRE
475.154DEHON Michel48BELACLO1:24:491:25:325:34 10.80177VE1457LA LOUVIERE
476.2372DARCIS Frederic34BELTDCHTDCH1:24:361:25:345:34 10.80138SEN459WIHOGNE
477.1044FSTELET Nathalie37BEL1:24:571:25:385:34 10.7916DAM455PELLAINES
478.1426BOONEN Chris36BELAVM1:25:001:25:395:34 10.79139SEN454MEER
479.33GEORGES Francois51BEL1:25:281:25:395:34 10.79102VE2447IXELLES
480.2267VANDENBERGHE Cédric30BELANTILOB1:24:391:25:475:35 10.77140SEN457LOUVAIN-LA-NEUVE
481.2393DEJARDIN Olivier41BEL1:25:181:25:535:35 10.76178VE1448DHUY
482.1079CHARLIER Michel37BELEPIDEMIE1:25:331:25:555:35 10.75141SEN445REMICOURT
483.2242JANSEN François52BEL1:25:161:25:565:35 10.75103VE2448LUSTIN
484.2386MERGNY Richel52BEL1:25:191:26:005:36 10.74104VE2447
485.225OLIVIER Pierre49BELSERSERUNNER1:24:571:26:025:36 10.74179VE1451HANEFFE
486.2043LAFFINEUR Jean-Michel46BELFORTIS1:25:041:26:035:36 10.74180VE1449WÉPION
487.2323LICCIARDI Lillo46BELSERUNNER1:25:121:26:075:36 10.73181VE1447
488.2437BIESEMANS André56BELDCLA1:25:181:26:085:36 10.73105VE2446HALEN
489.203ALBERT Michel46BELJC RONVAU1:25:451:26:085:36 10.73182VE1439LIERNU
490.2361MOXHON Henri40BEL1:26:001:26:125:36 10.72183VE1436
491.1960SPLINGARD Jean Claude49BELACLO1:25:581:26:155:37 10.71184VE1436HAINE-SAINT-PAUL
492.2211CAMPERS Gerald47BEL1:25:421:26:185:37 10.71185VE1439SAINT-MARC
493.526NORMAND Daniel46BELJCCS1:25:531:26:205:37 10.70186VE1436RIENNE
494.545DELPORT Patick52BELJOGGANS1:25:191:26:245:37 10.69106VE2443BRUXELLE
495.2038GHEURY Jean-Marie39BELSERSERUNNER1:25:551:26:245:37 10.69142SEN435SERAING
496.2026RATINCKX Michel50BELRIWAHERMATHENAE1:26:271:26:315:38 10.68107VE2428BIERGES
497.2040HIBO Pierre48BEL1:26:101:26:325:38 10.68187VE1431SAINT-SERVAIS
498.2305DEFEIJT Daniel48BEL1:25:321:26:325:38 10.68188VE1439BRUXELLES
499.1436DUVIVIER Philippe44BELTORTUES1:26:011:26:335:38 10.68189VE1432ARBRE
500.2373FMARCHAL Marie-Anne50BEL1:25:411:26:345:38 10.674AI2436BRUXELLES
DNF: did not finish; DSQ: disqualified; Speed in km/h
Page: [1] 2